Skip Navigation LinksHome page > Weather > Current weather Skip Navigation Links

Current Weather

Heathrow, London

For information only: do not use for flight planning or navigation.
Latest weather
Observation time Sunday, November 23, 2014 5:20 AM GMT
Local time Sunday, November 23, 2014 5:33 AM GMT
Flight conditions Instrument Meteorological Conditions
Winds
Wind direction Northwest (320°)
Winds variable from 290° to 350°
Wind speed 8 mph
Visibility 3.1 mi.
Present weather rain
Sky condition
Ceiling 800 ft. broken clouds
Cloud layer scattered clouds 400 ft.
Cloud layer scattered clouds 800 ft.
Cloud layer broken clouds 1,800 ft.
Temperature 50°F
Dewpoint 48°F
Altimeter 29.97 in.Hg
Derived measurements
Relative humidity 94%
Wind chill 47°F
Density altitude -494 ft.
Remarks
Corrected report.
METAR COR EGLL 230520Z 32007KT 290V350 5000 RA SCT004 SCT008 BKN018 10/09 Q1015 TEMPO 4000 BKN008

Settings

Location code

InnerDrive.Weather 4.0.5399.0 Release CLR 4.0.30319.34014
Copyright ©2014 Inner Drive Technology. All rights reserved. Portions Copyright ©1986-2014 David Braverman.

Find weather

Site navigation


Skip Navigation Links

Place info

Page info

PayPal - The safer, easier way to pay online!

Return home.

Copyright ©2014 Inner Drive Technology. Purveyors of fine, hand-crafted computer software. Page printed 2014-11-23T05:33:51 UTC.